sensor_id;sensor_type;location;lat;lon;timestamp;pressure;altitude;pressure_sealevel;temperature;humidity
11124;BME280;5616;42.692;23.312;2023-05-11T00:00:40;95330.28;;;11.10;78.39
11124;BME280;5616;42.692;23.312;2023-05-11T00:03:08;95334.25;;;10.83;79.87
11124;BME280;5616;42.692;23.312;2023-05-11T00:05:36;95331.78;;;10.89;79.43
11124;BME280;5616;42.692;23.312;2023-05-11T00:08:03;95335.25;;;10.96;78.79
11124;BME280;5616;42.692;23.312;2023-05-11T00:10:30;95333.22;;;10.92;78.82
11124;BME280;5616;42.692;23.312;2023-05-11T00:12:57;95340.84;;;10.85;79.09
11124;BME280;5616;42.692;23.312;2023-05-11T00:15:24;95340.69;;;10.87;79.29
11124;BME280;5616;42.692;23.312;2023-05-11T00:17:50;95341.66;;;10.86;78.88
11124;BME280;5616;42.692;23.312;2023-05-11T00:20:17;95337.09;;;10.88;78.63
11124;BME280;5616;42.692;23.312;2023-05-11T00:22:47;95333.97;;;10.78;79.75
11124;BME280;5616;42.692;23.312;2023-05-11T00:25:14;95338.44;;;10.84;79.37
11124;BME280;5616;42.692;23.312;2023-05-11T00:27:40;95335.19;;;10.67;79.66
11124;BME280;5616;42.692;23.312;2023-05-11T00:30:11;95333.97;;;10.63;80.00
11124;BME280;5616;42.692;23.312;2023-05-11T00:32:39;95339.44;;;10.46;80.56
11124;BME280;5616;42.692;23.312;2023-05-11T00:35:06;95336.16;;;10.52;80.43
11124;BME280;5616;42.692;23.312;2023-05-11T00:37:34;95339.00;;;10.57;79.75
11124;BME280;5616;42.692;23.312;2023-05-11T00:40:02;95331.50;;;10.47;80.19
11124;BME280;5616;42.692;23.312;2023-05-11T00:42:30;95341.25;;;10.60;79.66
11124;BME280;5616;42.692;23.312;2023-05-11T00:44:56;95342.03;;;10.46;80.67
11124;BME280;5616;42.692;23.312;2023-05-11T00:47:24;95344.44;;;10.62;79.95
11124;BME280;5616;42.692;23.312;2023-05-11T00:49:52;95345.59;;;10.59;79.67
11124;BME280;5616;42.692;23.312;2023-05-11T00:52:20;95344.84;;;10.73;78.60
11124;BME280;5616;42.692;23.312;2023-05-11T00:54:47;95343.59;;;10.69;78.54
11124;BME280;5616;42.692;23.312;2023-05-11T00:57:15;95347.97;;;10.69;79.04
11124;BME280;5616;42.692;23.312;2023-05-11T00:59:42;95350.63;;;10.75;78.58
11124;BME280;5616;42.692;23.312;2023-05-11T01:02:09;95346.19;;;10.84;77.68
11124;BME280;5616;42.692;23.312;2023-05-11T01:04:36;95350.41;;;10.85;77.71
11124;BME280;5616;42.692;23.312;2023-05-11T01:07:08;95346.00;;;10.85;77.04
11124;BME280;5616;42.692;23.312;2023-05-11T01:09:45;95347.09;;;10.76;77.83
11124;BME280;5616;42.692;23.312;2023-05-11T01:12:20;95345.72;;;10.66;78.39
11124;BME280;5616;42.692;23.312;2023-05-11T01:14:54;95346.63;;;10.73;78.14
11124;BME280;5616;42.692;23.312;2023-05-11T01:17:33;95342.59;;;10.70;78.27
11124;BME280;5616;42.692;23.312;2023-05-11T01:20:05;95347.84;;;10.62;78.14
11124;BME280;5616;42.692;23.312;2023-05-11T01:22:47;95351.41;;;10.61;78.75
11124;BME280;5616;42.692;23.312;2023-05-11T01:25:26;95348.75;;;10.69;78.06
11124;BME280;5616;42.692;23.312;2023-05-11T01:28:28;95351.56;;;10.60;78.75
11124;BME280;5616;42.692;23.312;2023-05-11T01:31:06;95346.25;;;10.61;78.48
11124;BME280;5616;42.692;23.312;2023-05-11T01:33:36;95349.88;;;10.67;77.75
11124;BME280;5616;42.692;23.312;2023-05-11T01:36:08;95348.03;;;10.61;79.07
11124;BME280;5616;42.692;23.312;2023-05-11T01:38:39;95347.31;;;10.67;78.59
11124;BME280;5616;42.692;23.312;2023-05-11T01:41:09;95346.59;;;10.58;78.18
11124;BME280;5616;42.692;23.312;2023-05-11T01:43:39;95349.63;;;10.62;78.90
11124;BME280;5616;42.692;23.312;2023-05-11T01:46:09;95347.63;;;10.49;79.46
11124;BME280;5616;42.692;23.312;2023-05-11T01:48:39;95352.38;;;10.60;79.33
11124;BME280;5616;42.692;23.312;2023-05-11T01:51:08;95353.19;;;10.61;79.43
11124;BME280;5616;42.692;23.312;2023-05-11T01:53:36;95361.00;;;10.53;79.49
11124;BME280;5616;42.692;23.312;2023-05-11T01:56:06;95360.72;;;10.48;79.84
11124;BME280;5616;42.692;23.312;2023-05-11T01:58:35;95355.09;;;10.44;79.74
11124;BME280;5616;42.692;23.312;2023-05-11T02:01:02;95365.31;;;10.37;79.59
11124;BME280;5616;42.692;23.312;2023-05-11T02:03:31;95349.19;;;10.35;79.53
11124;BME280;5616;42.692;23.312;2023-05-11T02:06:02;95354.81;;;10.39;80.01
11124;BME280;5616;42.692;23.312;2023-05-11T02:08:31;95356.91;;;10.35;78.75
11124;BME280;5616;42.692;23.312;2023-05-11T02:10:58;95359.16;;;10.38;78.60
11124;BME280;5616;42.692;23.312;2023-05-11T02:13:28;95349.97;;;10.36;79.27
11124;BME280;5616;42.692;23.312;2023-05-11T02:15:56;95350.44;;;10.39;78.42
11124;BME280;5616;42.692;23.312;2023-05-11T02:18:23;95353.38;;;10.36;77.85
11124;BME280;5616;42.692;23.312;2023-05-11T02:20:58;95350.50;;;10.31;78.83
11124;BME280;5616;42.692;23.312;2023-05-11T02:23:29;95347.31;;;10.29;78.11
11124;BME280;5616;42.692;23.312;2023-05-11T02:25:57;95344.31;;;10.18;78.72
11124;BME280;5616;42.692;23.312;2023-05-11T02:28:24;95351.09;;;10.19;79.12
11124;BME280;5616;42.692;23.312;2023-05-11T02:30:55;95346.38;;;10.22;79.16
11124;BME280;5616;42.692;23.312;2023-05-11T02:33:27;95346.41;;;10.14;79.03
11124;BME280;5616;42.692;23.312;2023-05-11T02:35:58;95342.34;;;10.20;79.13
11124;BME280;5616;42.692;23.312;2023-05-11T02:38:32;95343.38;;;10.33;77.92
11124;BME280;5616;42.692;23.312;2023-05-11T02:41:05;95339.22;;;10.32;78.39
11124;BME280;5616;42.692;23.312;2023-05-11T02:43:35;95348.56;;;10.33;77.55
11124;BME280;5616;42.692;23.312;2023-05-11T02:46:05;95349.69;;;10.31;77.46
11124;BME280;5616;42.692;23.312;2023-05-11T02:48:38;95342.34;;;10.20;77.79
11124;BME280;5616;42.692;23.312;2023-05-11T02:51:10;95348.25;;;10.28;77.26
11124;BME280;5616;42.692;23.312;2023-05-11T02:53:44;95339.31;;;10.16;78.79
11124;BME280;5616;42.692;23.312;2023-05-11T02:56:12;95342.63;;;10.25;77.79
11124;BME280;5616;42.692;23.312;2023-05-11T02:58:39;95348.78;;;10.24;77.74
11124;BME280;5616;42.692;23.312;2023-05-11T03:01:21;95343.63;;;10.24;77.85
11124;BME280;5616;42.692;23.312;2023-05-11T03:03:48;95351.44;;;10.16;78.09
11124;BME280;5616;42.692;23.312;2023-05-11T03:06:17;95342.53;;;10.41;88.89
11124;BME280;5616;42.692;23.312;2023-05-11T03:08:44;95344.78;;;10.21;79.37
11124;BME280;5616;42.692;23.312;2023-05-11T03:11:12;95333.81;;;10.19;78.02
11124;BME280;5616;42.692;23.312;2023-05-11T03:13:40;95341.09;;;10.16;77.81
11124;BME280;5616;42.692;23.312;2023-05-11T03:16:08;95340.78;;;10.11;78.25
11124;BME280;5616;42.692;23.312;2023-05-11T03:18:37;95338.78;;;9.98;78.70
11124;BME280;5616;42.692;23.312;2023-05-11T03:21:04;95344.09;;;9.97;78.61
11124;BME280;5616;42.692;23.312;2023-05-11T03:23:34;95353.00;;;9.86;78.60
11124;BME280;5616;42.692;23.312;2023-05-11T03:26:02;95345.19;;;9.71;80.34
11124;BME280;5616;42.692;23.312;2023-05-11T03:28:30;95347.78;;;9.71;80.55
11124;BME280;5616;42.692;23.312;2023-05-11T03:31:00;95352.53;;;9.82;79.86
11124;BME280;5616;42.692;23.312;2023-05-11T03:33:29;95351.25;;;9.87;79.29
11124;BME280;5616;42.692;23.312;2023-05-11T03:35:57;95347.34;;;9.91;79.19
11124;BME280;5616;42.692;23.312;2023-05-11T03:38:27;95349.50;;;9.79;79.59
11124;BME280;5616;42.692;23.312;2023-05-11T03:40:56;95351.72;;;9.90;79.28
11124;BME280;5616;42.692;23.312;2023-05-11T03:43:26;95355.06;;;9.91;79.64
11124;BME280;5616;42.692;23.312;2023-05-11T03:45:56;95348.44;;;9.96;79.57
11124;BME280;5616;42.692;23.312;2023-05-11T03:48:24;95358.31;;;9.93;79.13
11124;BME280;5616;42.692;23.312;2023-05-11T03:50:52;95350.63;;;9.84;79.63
11124;BME280;5616;42.692;23.312;2023-05-11T03:53:19;95358.34;;;9.84;80.41
11124;BME280;5616;42.692;23.312;2023-05-11T03:55:47;95361.47;;;10.03;79.79
11124;BME280;5616;42.692;23.312;2023-05-11T03:58:16;95360.84;;;10.01;80.74
11124;BME280;5616;42.692;23.312;2023-05-11T04:00:42;95357.28;;;10.02;80.17
11124;BME280;5616;42.692;23.312;2023-05-11T04:03:10;95361.56;;;9.87;80.35
11124;BME280;5616;42.692;23.312;2023-05-11T04:05:37;95375.59;;;9.84;80.85
11124;BME280;5616;42.692;23.312;2023-05-11T04:08:08;95371.16;;;10.01;80.50
11124;BME280;5616;42.692;23.312;2023-05-11T04:10:35;95368.09;;;9.97;80.61
11124;BME280;5616;42.692;23.312;2023-05-11T04:13:02;95371.41;;;9.83;81.33
11124;BME280;5616;42.692;23.312;2023-05-11T04:15:30;95367.94;;;9.68;81.82
11124;BME280;5616;42.692;23.312;2023-05-11T04:17:57;95372.44;;;9.74;81.36
11124;BME280;5616;42.692;23.312;2023-05-11T04:20:24;95369.34;;;9.78;81.86
11124;BME280;5616;42.692;23.312;2023-05-11T04:22:51;95370.94;;;9.79;81.91
11124;BME280;5616;42.692;23.312;2023-05-11T04:25:18;95369.59;;;9.61;82.99
11124;BME280;5616;42.692;23.312;2023-05-11T04:27:44;95369.53;;;9.69;82.91
11124;BME280;5616;42.692;23.312;2023-05-11T04:30:11;95373.84;;;9.76;82.73
11124;BME280;5616;42.692;23.312;2023-05-11T04:32:40;95373.56;;;9.71;82.36
11124;BME280;5616;42.692;23.312;2023-05-11T04:35:08;95385.72;;;9.85;82.59
11124;BME280;5616;42.692;23.312;2023-05-11T04:37:37;95384.44;;;9.90;82.15
11124;BME280;5616;42.692;23.312;2023-05-11T04:40:07;95379.44;;;9.88;82.37
11124;BME280;5616;42.692;23.312;2023-05-11T04:42:39;95384.38;;;9.59;83.73
11124;BME280;5616;42.692;23.312;2023-05-11T04:45:10;95374.41;;;9.64;84.03
11124;BME280;5616;42.692;23.312;2023-05-11T04:47:37;95377.59;;;9.74;83.64
11124;BME280;5616;42.692;23.312;2023-05-11T04:50:08;95381.78;;;9.67;84.64
11124;BME280;5616;42.692;23.312;2023-05-11T04:52:35;95382.22;;;9.78;83.45
11124;BME280;5616;42.692;23.312;2023-05-11T04:55:02;95377.59;;;9.74;83.91
11124;BME280;5616;42.692;23.312;2023-05-11T04:57:30;95385.72;;;9.85;83.07
11124;BME280;5616;42.692;23.312;2023-05-11T04:59:57;95394.19;;;9.71;84.11
11124;BME280;5616;42.692;23.312;2023-05-11T05:02:24;95394.81;;;9.73;84.89
11124;BME280;5616;42.692;23.312;2023-05-11T05:04:50;95388.75;;;9.58;86.04
11124;BME280;5616;42.692;23.312;2023-05-11T05:07:19;95393.38;;;9.71;85.28
11124;BME280;5616;42.692;23.312;2023-05-11T05:09:45;95400.41;;;9.85;84.00
11124;BME280;5616;42.692;23.312;2023-05-11T05:12:13;95406.56;;;9.76;84.38
11124;BME280;5616;42.692;23.312;2023-05-11T05:14:41;95402.94;;;9.93;84.23
11124;BME280;5616;42.692;23.312;2023-05-11T05:17:08;95407.44;;;9.99;83.29
11124;BME280;5616;42.692;23.312;2023-05-11T05:19:35;95411.66;;;9.92;83.25
11124;BME280;5616;42.692;23.312;2023-05-11T05:22:02;95417.66;;;9.84;83.23
11124;BME280;5616;42.692;23.312;2023-05-11T05:24:32;95405.09;;;9.81;83.68
11124;BME280;5616;42.692;23.312;2023-05-11T05:26:59;95399.75;;;9.83;84.26
11124;BME280;5616;42.692;23.312;2023-05-11T05:29:25;95400.75;;;9.82;84.11
11124;BME280;5616;42.692;23.312;2023-05-11T05:31:53;95406.81;;;9.97;83.78
11124;BME280;5616;42.692;23.312;2023-05-11T05:34:19;95401.84;;;9.88;85.17
11124;BME280;5616;42.692;23.312;2023-05-11T05:36:46;95404.22;;;9.97;84.67
11124;BME280;5616;42.692;23.312;2023-05-11T05:39:13;95408.81;;;10.18;84.40
11124;BME280;5616;42.692;23.312;2023-05-11T05:41:42;95408.53;;;10.05;84.09
11124;BME280;5616;42.692;23.312;2023-05-11T05:44:09;95414.75;;;10.26;83.01
11124;BME280;5616;42.692;23.312;2023-05-11T05:46:37;95418.34;;;10.09;82.69
11124;BME280;5616;42.692;23.312;2023-05-11T05:49:04;95420.09;;;10.17;82.53
11124;BME280;5616;42.692;23.312;2023-05-11T05:51:32;95411.22;;;10.19;82.80
11124;BME280;5616;42.692;23.312;2023-05-11T05:53:59;95418.41;;;10.32;82.17
11124;BME280;5616;42.692;23.312;2023-05-11T05:56:26;95424.03;;;10.35;82.05
11124;BME280;5616;42.692;23.312;2023-05-11T05:58:54;95427.03;;;10.24;82.25
11124;BME280;5616;42.692;23.312;2023-05-11T06:01:22;95430.34;;;10.33;82.39
11124;BME280;5616;42.692;23.312;2023-05-11T06:03:48;95426.25;;;10.08;83.73
11124;BME280;5616;42.692;23.312;2023-05-11T06:06:16;95424.13;;;10.19;83.21
11124;BME280;5616;42.692;23.312;2023-05-11T06:08:43;95426.22;;;10.24;82.68
11124;BME280;5616;42.692;23.312;2023-05-11T06:11:10;95427.13;;;10.31;82.29
11124;BME280;5616;42.692;23.312;2023-05-11T06:13:37;95426.50;;;10.29;82.53
11124;BME280;5616;42.692;23.312;2023-05-11T06:16:05;95428.97;;;10.45;82.41
11124;BME280;5616;42.692;23.312;2023-05-11T06:18:33;95430.66;;;10.61;81.33
11124;BME280;5616;42.692;23.312;2023-05-11T06:21:02;95436.19;;;10.72;80.23
11124;BME280;5616;42.692;23.312;2023-05-11T06:23:30;95440.13;;;10.68;79.89
11124;BME280;5616;42.692;23.312;2023-05-11T06:25:57;95442.38;;;10.71;80.42
11124;BME280;5616;42.692;23.312;2023-05-11T06:28:25;95440.34;;;10.59;81.29
11124;BME280;5616;42.692;23.312;2023-05-11T06:30:57;95454.91;;;10.52;81.52
11124;BME280;5616;42.692;23.312;2023-05-11T06:33:27;95451.69;;;10.50;81.14
11124;BME280;5616;42.692;23.312;2023-05-11T06:35:54;95448.59;;;10.31;82.64
11124;BME280;5616;42.692;23.312;2023-05-11T06:38:22;95447.34;;;10.50;82.08
11124;BME280;5616;42.692;23.312;2023-05-11T06:40:51;95445.22;;;10.54;81.39
11124;BME280;5616;42.692;23.312;2023-05-11T06:43:17;95452.56;;;10.65;80.95
11124;BME280;5616;42.692;23.312;2023-05-11T06:45:47;95450.25;;;10.70;81.34
11124;BME280;5616;42.692;23.312;2023-05-11T06:48:14;95459.06;;;10.83;80.46
11124;BME280;5616;42.692;23.312;2023-05-11T06:50:42;95450.59;;;10.67;80.86
11124;BME280;5616;42.692;23.312;2023-05-11T06:53:11;95443.16;;;10.72;80.35
11124;BME280;5616;42.692;23.312;2023-05-11T06:55:38;95446.59;;;10.64;79.91
11124;BME280;5616;42.692;23.312;2023-05-11T06:58:05;95444.13;;;10.71;79.86
11124;BME280;5616;42.692;23.312;2023-05-11T07:00:31;95447.34;;;10.73;80.17
11124;BME280;5616;42.692;23.312;2023-05-11T07:02:58;95452.28;;;10.82;81.06
11124;BME280;5616;42.692;23.312;2023-05-11T07:05:25;95454.72;;;10.98;80.22
11124;BME280;5616;42.692;23.312;2023-05-11T07:07:53;95455.25;;;11.17;78.54
11124;BME280;5616;42.692;23.312;2023-05-11T07:10:20;95449.53;;;11.21;79.23
11124;BME280;5616;42.692;23.312;2023-05-11T07:12:47;95458.31;;;11.35;77.54
11124;BME280;5616;42.692;23.312;2023-05-11T07:15:14;95460.81;;;11.43;76.16
11124;BME280;5616;42.692;23.312;2023-05-11T07:17:41;95457.94;;;11.38;76.19
11124;BME280;5616;42.692;23.312;2023-05-11T07:20:11;95458.84;;;11.45;76.42
11124;BME280;5616;42.692;23.312;2023-05-11T07:22:37;95462.13;;;11.39;76.87
11124;BME280;5616;42.692;23.312;2023-05-11T07:25:06;95463.63;;;11.71;74.95
11124;BME280;5616;42.692;23.312;2023-05-11T07:27:34;95459.53;;;12.05;73.73
11124;BME280;5616;42.692;23.312;2023-05-11T07:30:02;95461.00;;;12.14;72.94
11124;BME280;5616;42.692;23.312;2023-05-11T07:32:29;95457.59;;;12.28;73.09
11124;BME280;5616;42.692;23.312;2023-05-11T07:34:55;95459.88;;;12.38;71.46
11124;BME280;5616;42.692;23.312;2023-05-11T07:37:22;95463.66;;;12.36;70.91
11124;BME280;5616;42.692;23.312;2023-05-11T07:39:49;95452.28;;;12.94;69.30
11124;BME280;5616;42.692;23.312;2023-05-11T07:42:17;95454.59;;;13.52;68.40
11124;BME280;5616;42.692;23.312;2023-05-11T07:44:44;95462.66;;;13.98;65.30
11124;BME280;5616;42.692;23.312;2023-05-11T07:47:11;95468.69;;;14.05;65.12
11124;BME280;5616;42.692;23.312;2023-05-11T07:49:37;95462.56;;;14.19;64.28
11124;BME280;5616;42.692;23.312;2023-05-11T07:52:04;95464.31;;;14.12;63.15
11124;BME280;5616;42.692;23.312;2023-05-11T07:54:31;95464.91;;;14.48;64.27
11124;BME280;5616;42.692;23.312;2023-05-11T07:56:58;95457.13;;;14.55;61.05
11124;BME280;5616;42.692;23.312;2023-05-11T07:59:26;95462.97;;;14.77;61.20
11124;BME280;5616;42.692;23.312;2023-05-11T08:01:53;95457.97;;;14.68;61.22
11124;BME280;5616;42.692;23.312;2023-05-11T08:04:20;95452.16;;;14.73;62.38
11124;BME280;5616;42.692;23.312;2023-05-11T08:06:47;95457.88;;;14.49;61.70
11124;BME280;5616;42.692;23.312;2023-05-11T08:09:13;95466.75;;;14.67;62.35
11124;BME280;5616;42.692;23.312;2023-05-11T08:11:40;95458.34;;;14.65;60.75
11124;BME280;5616;42.692;23.312;2023-05-11T08:14:07;95450.50;;;14.52;61.31
11124;BME280;5616;42.692;23.312;2023-05-11T08:16:36;95451.78;;;14.89;60.67
11124;BME280;5616;42.692;23.312;2023-05-11T08:19:03;95455.41;;;15.21;59.58
11124;BME280;5616;42.692;23.312;2023-05-11T08:21:30;95459.44;;;15.43;58.52
11124;BME280;5616;42.692;23.312;2023-05-11T08:23:57;95458.63;;;15.43;57.42
11124;BME280;5616;42.692;23.312;2023-05-11T08:26:24;95459.63;;;15.09;58.67
11124;BME280;5616;42.692;23.312;2023-05-11T08:28:50;95441.78;;;14.86;59.55
11124;BME280;5616;42.692;23.312;2023-05-11T08:31:17;95459.44;;;15.04;58.55
11124;BME280;5616;42.692;23.312;2023-05-11T08:33:45;95459.00;;;15.20;58.43
11124;BME280;5616;42.692;23.312;2023-05-11T08:36:12;95465.41;;;15.30;58.34
11124;BME280;5616;42.692;23.312;2023-05-11T08:38:40;95457.03;;;15.22;57.66
11124;BME280;5616;42.692;23.312;2023-05-11T08:41:06;95460.59;;;14.95;58.84
11124;BME280;5616;42.692;23.312;2023-05-11T08:43:34;95444.81;;;15.03;59.18
11124;BME280;5616;42.692;23.312;2023-05-11T08:46:02;95454.63;;;15.01;58.62
11124;BME280;5616;42.692;23.312;2023-05-11T08:48:31;95460.03;;;15.06;58.59
11124;BME280;5616;42.692;23.312;2023-05-11T08:51:00;95453.56;;;14.76;59.10
11124;BME280;5616;42.692;23.312;2023-05-11T08:53:28;95460.13;;;14.58;60.29
11124;BME280;5616;42.692;23.312;2023-05-11T08:55:57;95448.81;;;14.92;59.23
11124;BME280;5616;42.692;23.312;2023-05-11T08:58:24;95459.25;;;15.38;58.42
11124;BME280;5616;42.692;23.312;2023-05-11T09:00:52;95447.47;;;15.49;58.27
11124;BME280;5616;42.692;23.312;2023-05-11T09:03:20;95441.25;;;15.56;56.00
11124;BME280;5616;42.692;23.312;2023-05-11T09:05:48;95455.47;;;15.54;56.35
11124;BME280;5616;42.692;23.312;2023-05-11T09:08:17;95441.63;;;15.60;55.88
11124;BME280;5616;42.692;23.312;2023-05-11T09:10:44;95441.81;;;15.25;58.83
11124;BME280;5616;42.692;23.312;2023-05-11T09:13:11;95443.00;;;15.23;60.13
11124;BME280;5616;42.692;23.312;2023-05-11T09:15:38;95443.00;;;14.90;58.54
11124;BME280;5616;42.692;23.312;2023-05-11T09:18:05;95431.13;;;14.55;60.18
11124;BME280;5616;42.692;23.312;2023-05-11T09:20:32;95439.09;;;14.40;60.76
11124;BME280;5616;42.692;23.312;2023-05-11T09:22:59;95435.47;;;14.41;62.51
11124;BME280;5616;42.692;23.312;2023-05-11T09:25:31;95437.19;;;14.28;62.52
11124;BME280;5616;42.692;23.312;2023-05-11T09:27:59;95451.53;;;14.17;62.81
11124;BME280;5616;42.692;23.312;2023-05-11T09:30:26;95448.69;;;14.40;62.37
11124;BME280;5616;42.692;23.312;2023-05-11T09:32:54;95447.59;;;14.28;62.34
11124;BME280;5616;42.692;23.312;2023-05-11T09:35:23;95453.38;;;14.23;62.09
11124;BME280;5616;42.692;23.312;2023-05-11T09:38:01;95444.97;;;14.21;63.84
11124;BME280;5616;42.692;23.312;2023-05-11T09:40:31;95447.88;;;14.33;64.14
11124;BME280;5616;42.692;23.312;2023-05-11T09:42:58;95444.75;;;14.16;64.21
11124;BME280;5616;42.692;23.312;2023-05-11T09:45:38;95442.38;;;14.21;64.10
11124;BME280;5616;42.692;23.312;2023-05-11T09:48:06;95439.19;;;14.19;63.49
11124;BME280;5616;42.692;23.312;2023-05-11T09:50:33;95438.13;;;14.07;64.20
11124;BME280;5616;42.692;23.312;2023-05-11T09:53:00;95438.91;;;14.01;63.96
11124;BME280;5616;42.692;23.312;2023-05-11T09:55:27;95430.66;;;13.91;64.48
11124;BME280;5616;42.692;23.312;2023-05-11T09:57:57;95433.00;;;13.79;65.07
11124;BME280;5616;42.692;23.312;2023-05-11T10:00:25;95420.81;;;14.21;63.53
11124;BME280;5616;42.692;23.312;2023-05-11T10:02:59;95418.34;;;14.53;63.44
11124;BME280;5616;42.692;23.312;2023-05-11T10:05:27;95428.91;;;14.45;64.37
11124;BME280;5616;42.692;23.312;2023-05-11T10:07:56;95431.91;;;14.49;62.05
11124;BME280;5616;42.692;23.312;2023-05-11T10:10:25;95422.91;;;14.51;61.71
11124;BME280;5616;42.692;23.312;2023-05-11T10:12:53;95425.50;;;14.45;62.32
11124;BME280;5616;42.692;23.312;2023-05-11T10:15:22;95417.31;;;14.54;63.80
11124;BME280;5616;42.692;23.312;2023-05-11T10:17:52;95411.78;;;14.64;61.68
11124;BME280;5616;42.692;23.312;2023-05-11T10:20:20;95410.69;;;14.39;62.24
11124;BME280;5616;42.692;23.312;2023-05-11T10:22:50;95404.19;;;14.69;62.87
11124;BME280;5616;42.692;23.312;2023-05-11T10:25:18;95404.81;;;15.17;62.93
11124;BME280;5616;42.692;23.312;2023-05-11T10:27:46;95408.59;;;15.08;61.08
11124;BME280;5616;42.692;23.312;2023-05-11T10:30:14;95401.38;;;15.23;60.58
11124;BME280;5616;42.692;23.312;2023-05-11T10:32:43;95399.19;;;15.26;60.84
11124;BME280;5616;42.692;23.312;2023-05-11T10:35:10;95395.38;;;15.36;60.07
11124;BME280;5616;42.692;23.312;2023-05-11T10:37:37;95387.34;;;15.63;61.34
11124;BME280;5616;42.692;23.312;2023-05-11T10:40:05;95384.97;;;15.62;58.19
11124;BME280;5616;42.692;23.312;2023-05-11T10:43:02;95375.09;;;15.70;60.33
11124;BME280;5616;42.692;23.312;2023-05-11T10:45:40;95393.75;;;15.67;58.93
11124;BME280;5616;42.692;23.312;2023-05-11T10:48:51;95381.97;;;15.58;60.95
11124;BME280;5616;42.692;23.312;2023-05-11T10:51:36;95402.94;;;15.70;59.15
11124;BME280;5616;42.692;23.312;2023-05-11T10:54:20;95388.50;;;15.80;59.64
11124;BME280;5616;42.692;23.312;2023-05-11T11:02:55;95386.53;;;15.69;58.48
11124;BME280;5616;42.692;23.312;2023-05-11T11:05:33;95387.72;;;15.73;58.12
11124;BME280;5616;42.692;23.312;2023-05-11T11:08:01;95385.03;;;16.00;57.08
11124;BME280;5616;42.692;23.312;2023-05-11T11:10:30;95382.75;;;16.16;56.85
11124;BME280;5616;42.692;23.312;2023-05-11T11:13:01;95382.00;;;16.03;57.12
11124;BME280;5616;42.692;23.312;2023-05-11T11:18:29;95396.00;;;15.51;59.97
11124;BME280;5616;42.692;23.312;2023-05-11T11:21:00;95385.31;;;15.78;58.69
11124;BME280;5616;42.692;23.312;2023-05-11T11:23:40;95371.31;;;15.66;59.21
11124;BME280;5616;42.692;23.312;2023-05-11T11:26:07;95383.22;;;16.00;57.35
11124;BME280;5616;42.692;23.312;2023-05-11T11:29:11;95380.00;;;16.05;56.29
11124;BME280;5616;42.692;23.312;2023-05-11T11:31:39;95382.25;;;15.95;57.75
11124;BME280;5616;42.692;23.312;2023-05-11T11:34:31;95373.63;;;16.01;56.75
11124;BME280;5616;42.692;23.312;2023-05-11T11:37:05;95374.25;;;15.96;57.03
11124;BME280;5616;42.692;23.312;2023-05-11T11:39:50;95367.19;;;15.46;58.53
11124;BME280;5616;42.692;23.312;2023-05-11T11:42:36;95375.75;;;15.46;59.26
11124;BME280;5616;42.692;23.312;2023-05-11T11:45:29;95367.94;;;15.40;58.50
11124;BME280;5616;42.692;23.312;2023-05-11T11:48:21;95373.31;;;15.77;59.31
11124;BME280;5616;42.692;23.312;2023-05-11T11:50:48;95372.47;;;15.83;57.62
11124;BME280;5616;42.692;23.312;2023-05-11T11:56:41;95357.94;;;16.45;56.46
11124;BME280;5616;42.692;23.312;2023-05-11T11:59:13;95368.13;;;16.15;56.30
11124;BME280;5616;42.692;23.312;2023-05-11T12:01:42;95372.19;;;16.05;56.91
11124;BME280;5616;42.692;23.312;2023-05-11T12:07:07;95363.47;;;15.73;58.26
11124;BME280;5616;42.692;23.312;2023-05-11T12:09:37;95361.81;;;15.98;57.00
11124;BME280;5616;42.692;23.312;2023-05-11T12:12:06;95363.19;;;16.01;56.82
11124;BME280;5616;42.692;23.312;2023-05-11T12:14:34;95356.88;;;15.70;58.73
11124;BME280;5616;42.692;23.312;2023-05-11T12:17:06;95359.66;;;15.82;59.11
11124;BME280;5616;42.692;23.312;2023-05-11T12:19:41;95364.72;;;15.64;58.53
11124;BME280;5616;42.692;23.312;2023-05-11T12:22:09;95351.91;;;15.62;58.62
11124;BME280;5616;42.692;23.312;2023-05-11T12:24:36;95341.72;;;15.41;58.88
11124;BME280;5616;42.692;23.312;2023-05-11T12:27:04;95351.31;;;15.67;59.68
11124;BME280;5616;42.692;23.312;2023-05-11T12:29:32;95334.69;;;15.61;57.51
11124;BME280;5616;42.692;23.312;2023-05-11T12:31:59;95348.75;;;15.54;57.90
11124;BME280;5616;42.692;23.312;2023-05-11T12:34:26;95348.38;;;15.24;60.02
11124;BME280;5616;42.692;23.312;2023-05-11T12:36:53;95341.16;;;15.26;60.49
11124;BME280;5616;42.692;23.312;2023-05-11T12:39:22;95336.31;;;15.43;61.63
11124;BME280;5616;42.692;23.312;2023-05-11T12:41:50;95329.13;;;15.38;59.82
11124;BME280;5616;42.692;23.312;2023-05-11T12:44:18;95332.34;;;15.40;60.08
11124;BME280;5616;42.692;23.312;2023-05-11T12:46:48;95320.94;;;15.28;59.24
11124;BME280;5616;42.692;23.312;2023-05-11T12:49:16;95326.13;;;15.35;61.41
11124;BME280;5616;42.692;23.312;2023-05-11T12:51:48;95325.72;;;15.31;59.57
11124;BME280;5616;42.692;23.312;2023-05-11T12:54:30;95329.75;;;15.27;59.44
11124;BME280;5616;42.692;23.312;2023-05-11T12:56:57;95313.75;;;15.30;60.04
11124;BME280;5616;42.692;23.312;2023-05-11T12:59:33;95309.56;;;15.09;59.47
11124;BME280;5616;42.692;23.312;2023-05-11T13:02:14;95315.59;;;14.70;61.26
11124;BME280;5616;42.692;23.312;2023-05-11T13:04:42;95314.00;;;14.69;60.31
11124;BME280;5616;42.692;23.312;2023-05-11T13:07:10;95322.38;;;14.78;59.61
11124;BME280;5616;42.692;23.312;2023-05-11T13:09:38;95317.19;;;14.58;60.54
11124;BME280;5616;42.692;23.312;2023-05-11T13:12:15;95314.59;;;14.58;61.67
11124;BME280;5616;42.692;23.312;2023-05-11T13:14:44;95304.19;;;14.52;61.36
11124;BME280;5616;42.692;23.312;2023-05-11T13:17:14;95298.53;;;14.29;62.01
11124;BME280;5616;42.692;23.312;2023-05-11T13:19:40;95308.41;;;14.53;61.08
11124;BME280;5616;42.692;23.312;2023-05-11T13:22:10;95310.78;;;14.67;60.22
11124;BME280;5616;42.692;23.312;2023-05-11T13:24:37;95307.41;;;14.47;62.44
11124;BME280;5616;42.692;23.312;2023-05-11T13:27:04;95298.41;;;14.69;62.81
11124;BME280;5616;42.692;23.312;2023-05-11T13:29:31;95301.03;;;14.69;62.85